sensor_id;sensor_type;location;lat;lon;timestamp;P1;durP1;ratioP1;P2;durP2;ratioP2
15404;SDS011;7801;48.124;11.590;2023-01-30T00:01:42;4.53;;;4.23;;
15404;SDS011;7801;48.124;11.590;2023-01-30T00:04:09;2.42;;;1.87;;
15404;SDS011;7801;48.124;11.590;2023-01-30T00:06:36;3.92;;;3.72;;
15404;SDS011;7801;48.124;11.590;2023-01-30T00:09:02;5.55;;;3.20;;
15404;SDS011;7801;48.124;11.590;2023-01-30T00:11:28;3.73;;;2.40;;
15404;SDS011;7801;48.124;11.590;2023-01-30T00:13:56;2.85;;;2.67;;
15404;SDS011;7801;48.124;11.590;2023-01-30T00:16:21;5.87;;;3.80;;
15404;SDS011;7801;48.124;11.590;2023-01-30T00:18:47;2.87;;;2.77;;
15404;SDS011;7801;48.124;11.590;2023-01-30T00:21:13;2.87;;;2.77;;
15404;SDS011;7801;48.124;11.590;2023-01-30T00:23:39;2.35;;;2.25;;
15404;SDS011;7801;48.124;11.590;2023-01-30T00:26:05;2.33;;;2.23;;
15404;SDS011;7801;48.124;11.590;2023-01-30T00:28:31;3.50;;;3.30;;
15404;SDS011;7801;48.124;11.590;2023-01-30T00:30:56;3.50;;;2.97;;
15404;SDS011;7801;48.124;11.590;2023-01-30T00:33:22;3.00;;;2.80;;
15404;SDS011;7801;48.124;11.590;2023-01-30T00:35:50;3.62;;;3.33;;
15404;SDS011;7801;48.124;11.590;2023-01-30T00:38:16;4.20;;;4.00;;
15404;SDS011;7801;48.124;11.590;2023-01-30T00:40:43;2.65;;;2.55;;
15404;SDS011;7801;48.124;11.590;2023-01-30T00:43:12;3.07;;;2.97;;
15404;SDS011;7801;48.124;11.590;2023-01-30T00:45:58;3.85;;;2.62;;
15404;SDS011;7801;48.124;11.590;2023-01-30T00:48:43;4.00;;;3.78;;
15404;SDS011;7801;48.124;11.590;2023-01-30T00:51:09;3.37;;;3.17;;
15404;SDS011;7801;48.124;11.590;2023-01-30T00:53:34;4.07;;;3.80;;
15404;SDS011;7801;48.124;11.590;2023-01-30T00:55:59;4.80;;;4.40;;
15404;SDS011;7801;48.124;11.590;2023-01-30T00:58:25;3.60;;;3.23;;
15404;SDS011;7801;48.124;11.590;2023-01-30T01:00:52;4.37;;;4.07;;
15404;SDS011;7801;48.124;11.590;2023-01-30T01:03:17;2.17;;;2.13;;
15404;SDS011;7801;48.124;11.590;2023-01-30T01:05:43;3.80;;;3.50;;
15404;SDS011;7801;48.124;11.590;2023-01-30T01:08:10;3.50;;;3.25;;
15404;SDS011;7801;48.124;11.590;2023-01-30T01:10:35;3.43;;;3.33;;
15404;SDS011;7801;48.124;11.590;2023-01-30T01:13:01;4.57;;;3.70;;
15404;SDS011;7801;48.124;11.590;2023-01-30T01:15:29;4.45;;;3.33;;
15404;SDS011;7801;48.124;11.590;2023-01-30T01:17:55;5.32;;;4.30;;
15404;SDS011;7801;48.124;11.590;2023-01-30T01:20:20;3.20;;;3.00;;
15404;SDS011;7801;48.124;11.590;2023-01-30T01:22:47;2.67;;;2.58;;
15404;SDS011;7801;48.124;11.590;2023-01-30T01:25:16;3.12;;;2.90;;
15404;SDS011;7801;48.124;11.590;2023-01-30T01:27:43;4.62;;;4.32;;
15404;SDS011;7801;48.124;11.590;2023-01-30T01:30:09;3.13;;;3.03;;
15404;SDS011;7801;48.124;11.590;2023-01-30T01:32:34;3.60;;;3.37;;
15404;SDS011;7801;48.124;11.590;2023-01-30T01:35:00;3.33;;;3.07;;
15404;SDS011;7801;48.124;11.590;2023-01-30T01:37:25;3.33;;;3.00;;
15404;SDS011;7801;48.124;11.590;2023-01-30T01:39:50;5.63;;;5.10;;
15404;SDS011;7801;48.124;11.590;2023-01-30T01:42:35;3.42;;;3.12;;
15404;SDS011;7801;48.124;11.590;2023-01-30T01:47:48;3.95;;;3.65;;
15404;SDS011;7801;48.124;11.590;2023-01-30T01:50:21;4.50;;;2.70;;
15404;SDS011;7801;48.124;11.590;2023-01-30T01:52:49;3.20;;;3.00;;
15404;SDS011;7801;48.124;11.590;2023-01-30T01:55:17;4.03;;;2.87;;
15404;SDS011;7801;48.124;11.590;2023-01-30T01:57:51;3.70;;;3.45;;
15404;SDS011;7801;48.124;11.590;2023-01-30T02:00:21;3.80;;;3.67;;
15404;SDS011;7801;48.124;11.590;2023-01-30T02:02:55;2.67;;;2.53;;
15404;SDS011;7801;48.124;11.590;2023-01-30T02:05:24;5.53;;;3.47;;
15404;SDS011;7801;48.124;11.590;2023-01-30T02:10:24;4.43;;;4.12;;
15404;SDS011;7801;48.124;11.590;2023-01-30T02:12:56;2.25;;;2.08;;
15404;SDS011;7801;48.124;11.590;2023-01-30T02:15:22;3.53;;;3.23;;
15404;SDS011;7801;48.124;11.590;2023-01-30T02:17:47;3.00;;;2.83;;
15404;SDS011;7801;48.124;11.590;2023-01-30T02:20:20;2.77;;;2.57;;
15404;SDS011;7801;48.124;11.590;2023-01-30T02:50:35;2.33;;;2.33;;
15404;SDS011;7801;48.124;11.590;2023-01-30T02:53:09;3.00;;;2.80;;
15404;SDS011;7801;48.124;11.590;2023-01-30T02:55:35;2.95;;;2.72;;
15404;SDS011;7801;48.124;11.590;2023-01-30T02:58:04;2.60;;;2.50;;
15404;SDS011;7801;48.124;11.590;2023-01-30T03:03:46;2.72;;;2.62;;
15404;SDS011;7801;48.124;11.590;2023-01-30T03:17:11;2.90;;;2.80;;
15404;SDS011;7801;48.124;11.590;2023-01-30T03:19:39;3.35;;;3.17;;
15404;SDS011;7801;48.124;11.590;2023-01-30T03:22:06;2.87;;;2.70;;
15404;SDS011;7801;48.124;11.590;2023-01-30T03:24:31;2.33;;;2.23;;
15404;SDS011;7801;48.124;11.590;2023-01-30T03:27:05;2.77;;;2.57;;
15404;SDS011;7801;48.124;11.590;2023-01-30T03:29:34;2.67;;;2.53;;
15404;SDS011;7801;48.124;11.590;2023-01-30T03:32:00;7.53;;;4.33;;
15404;SDS011;7801;48.124;11.590;2023-01-30T03:34:25;2.70;;;2.53;;
15404;SDS011;7801;48.124;11.590;2023-01-30T03:36:50;1.67;;;1.63;;
15404;SDS011;7801;48.124;11.590;2023-01-30T03:39:16;2.43;;;2.33;;
15404;SDS011;7801;48.124;11.590;2023-01-30T03:41:41;2.90;;;2.80;;
15404;SDS011;7801;48.124;11.590;2023-01-30T03:44:06;3.80;;;2.77;;
15404;SDS011;7801;48.124;11.590;2023-01-30T03:46:32;1.93;;;1.83;;
15404;SDS011;7801;48.124;11.590;2023-01-30T03:49:00;2.87;;;2.43;;
15404;SDS011;7801;48.124;11.590;2023-01-30T03:51:25;8.00;;;4.50;;
15404;SDS011;7801;48.124;11.590;2023-01-30T03:53:50;3.77;;;3.43;;
15404;SDS011;7801;48.124;11.590;2023-01-30T03:56:16;3.70;;;3.50;;
15404;SDS011;7801;48.124;11.590;2023-01-30T03:58:41;2.33;;;2.13;;
15404;SDS011;7801;48.124;11.590;2023-01-30T04:01:06;2.63;;;2.43;;
15404;SDS011;7801;48.124;11.590;2023-01-30T04:03:32;3.70;;;3.50;;
15404;SDS011;7801;48.124;11.590;2023-01-30T04:05:58;2.47;;;2.28;;
15404;SDS011;7801;48.124;11.590;2023-01-30T04:08:24;2.67;;;2.57;;
15404;SDS011;7801;48.124;11.590;2023-01-30T04:10:49;2.87;;;2.77;;
15404;SDS011;7801;48.124;11.590;2023-01-30T04:13:14;2.70;;;2.40;;
15404;SDS011;7801;48.124;11.590;2023-01-30T04:15:40;11.57;;;4.17;;
15404;SDS011;7801;48.124;11.590;2023-01-30T04:18:05;3.33;;;3.13;;
15404;SDS011;7801;48.124;11.590;2023-01-30T04:20:30;7.30;;;2.93;;
15404;SDS011;7801;48.124;11.590;2023-01-30T04:22:56;4.70;;;2.13;;
15404;SDS011;7801;48.124;11.590;2023-01-30T04:25:21;3.13;;;2.10;;
15404;SDS011;7801;48.124;11.590;2023-01-30T04:27:46;2.80;;;2.40;;
15404;SDS011;7801;48.124;11.590;2023-01-30T04:30:12;1.97;;;1.93;;
15404;SDS011;7801;48.124;11.590;2023-01-30T04:32:37;2.73;;;2.53;;
15404;SDS011;7801;48.124;11.590;2023-01-30T04:35:03;4.37;;;4.00;;
15404;SDS011;7801;48.124;11.590;2023-01-30T04:37:28;8.07;;;3.93;;
15404;SDS011;7801;48.124;11.590;2023-01-30T04:39:54;2.70;;;2.50;;
15404;SDS011;7801;48.124;11.590;2023-01-30T04:42:19;3.50;;;3.33;;
15404;SDS011;7801;48.124;11.590;2023-01-30T04:44:44;2.77;;;2.50;;
15404;SDS011;7801;48.124;11.590;2023-01-30T04:47:10;3.03;;;1.63;;
15404;SDS011;7801;48.124;11.590;2023-01-30T04:49:35;1.97;;;1.93;;
15404;SDS011;7801;48.124;11.590;2023-01-30T04:52:00;3.23;;;2.97;;
15404;SDS011;7801;48.124;11.590;2023-01-30T04:54:26;2.77;;;2.67;;
15404;SDS011;7801;48.124;11.590;2023-01-30T04:56:51;3.70;;;3.50;;
15404;SDS011;7801;48.124;11.590;2023-01-30T04:59:16;2.83;;;2.63;;
15404;SDS011;7801;48.124;11.590;2023-01-30T05:01:42;4.43;;;3.30;;
15404;SDS011;7801;48.124;11.590;2023-01-30T05:04:07;3.23;;;2.40;;
15404;SDS011;7801;48.124;11.590;2023-01-30T05:06:33;2.63;;;2.50;;
15404;SDS011;7801;48.124;11.590;2023-01-30T05:08:59;2.42;;;2.37;;
15404;SDS011;7801;48.124;11.590;2023-01-30T05:11:25;2.53;;;2.43;;
15404;SDS011;7801;48.124;11.590;2023-01-30T05:13:52;2.75;;;2.65;;
15404;SDS011;7801;48.124;11.590;2023-01-30T05:16:19;2.87;;;2.45;;
15404;SDS011;7801;48.124;11.590;2023-01-30T05:18:45;3.47;;;3.20;;
15404;SDS011;7801;48.124;11.590;2023-01-30T05:21:12;2.27;;;1.93;;
15404;SDS011;7801;48.124;11.590;2023-01-30T05:23:42;2.90;;;2.80;;
15404;SDS011;7801;48.124;11.590;2023-01-30T05:26:07;2.00;;;1.90;;
15404;SDS011;7801;48.124;11.590;2023-01-30T05:28:33;2.30;;;2.13;;
15404;SDS011;7801;48.124;11.590;2023-01-30T05:31:06;2.77;;;2.57;;
15404;SDS011;7801;48.124;11.590;2023-01-30T05:33:38;3.05;;;2.95;;
15404;SDS011;7801;48.124;11.590;2023-01-30T05:36:04;4.72;;;4.32;;
15404;SDS011;7801;48.124;11.590;2023-01-30T05:38:30;3.37;;;3.22;;
15404;SDS011;7801;48.124;11.590;2023-01-30T05:43:31;2.35;;;2.25;;
15404;SDS011;7801;48.124;11.590;2023-01-30T05:45:58;2.92;;;2.30;;
15404;SDS011;7801;48.124;11.590;2023-01-30T05:48:25;3.15;;;3.03;;
15404;SDS011;7801;48.124;11.590;2023-01-30T05:50:52;2.33;;;2.22;;
15404;SDS011;7801;48.124;11.590;2023-01-30T05:53:19;3.15;;;3.05;;
15404;SDS011;7801;48.124;11.590;2023-01-30T05:55:56;3.33;;;2.25;;
15404;SDS011;7801;48.124;11.590;2023-01-30T05:58:23;2.83;;;2.62;;
15404;SDS011;7801;48.124;11.590;2023-01-30T06:00:49;3.47;;;3.37;;
15404;SDS011;7801;48.124;11.590;2023-01-30T06:03:15;3.12;;;3.03;;
15404;SDS011;7801;48.124;11.590;2023-01-30T06:05:40;2.20;;;2.07;;
15404;SDS011;7801;48.124;11.590;2023-01-30T06:08:06;2.97;;;2.87;;
15404;SDS011;7801;48.124;11.590;2023-01-30T06:10:32;1.73;;;1.70;;
15404;SDS011;7801;48.124;11.590;2023-01-30T06:12:58;1.87;;;1.67;;
15404;SDS011;7801;48.124;11.590;2023-01-30T06:15:23;2.27;;;2.17;;
15404;SDS011;7801;48.124;11.590;2023-01-30T06:17:49;5.33;;;3.67;;
15404;SDS011;7801;48.124;11.590;2023-01-30T06:20:14;2.93;;;2.77;;
15404;SDS011;7801;48.124;11.590;2023-01-30T06:22:39;2.43;;;2.33;;
15404;SDS011;7801;48.124;11.590;2023-01-30T06:25:05;3.23;;;2.93;;
15404;SDS011;7801;48.124;11.590;2023-01-30T06:27:30;1.77;;;1.67;;
15404;SDS011;7801;48.124;11.590;2023-01-30T06:29:55;0.93;;;0.83;;
15404;SDS011;7801;48.124;11.590;2023-01-30T06:32:21;2.70;;;2.60;;
15404;SDS011;7801;48.124;11.590;2023-01-30T06:34:47;0.73;;;0.73;;
15404;SDS011;7801;48.124;11.590;2023-01-30T06:37:12;2.87;;;2.77;;
15404;SDS011;7801;48.124;11.590;2023-01-30T06:39:37;3.07;;;2.93;;
15404;SDS011;7801;48.124;11.590;2023-01-30T06:42:03;2.93;;;2.73;;
15404;SDS011;7801;48.124;11.590;2023-01-30T06:44:28;1.93;;;1.83;;
15404;SDS011;7801;48.124;11.590;2023-01-30T06:46:53;1.90;;;1.77;;
15404;SDS011;7801;48.124;11.590;2023-01-30T06:49:19;1.43;;;1.33;;
15404;SDS011;7801;48.124;11.590;2023-01-30T06:51:44;2.47;;;2.37;;
15404;SDS011;7801;48.124;11.590;2023-01-30T06:54:09;2.67;;;2.30;;
15404;SDS011;7801;48.124;11.590;2023-01-30T06:56:35;3.07;;;2.47;;
15404;SDS011;7801;48.124;11.590;2023-01-30T06:59:00;2.03;;;1.90;;
15404;SDS011;7801;48.124;11.590;2023-01-30T07:01:25;2.37;;;2.17;;
15404;SDS011;7801;48.124;11.590;2023-01-30T07:03:51;2.33;;;2.17;;
15404;SDS011;7801;48.124;11.590;2023-01-30T07:06:16;2.83;;;2.73;;
15404;SDS011;7801;48.124;11.590;2023-01-30T07:08:41;2.77;;;2.67;;
15404;SDS011;7801;48.124;11.590;2023-01-30T07:11:08;3.53;;;2.28;;
15404;SDS011;7801;48.124;11.590;2023-01-30T07:13:34;2.08;;;1.98;;
15404;SDS011;7801;48.124;11.590;2023-01-30T07:16:00;3.30;;;2.80;;
15404;SDS011;7801;48.124;11.590;2023-01-30T07:18:25;2.77;;;2.57;;
15404;SDS011;7801;48.124;11.590;2023-01-30T07:20:50;3.07;;;2.87;;
15404;SDS011;7801;48.124;11.590;2023-01-30T07:23:16;1.93;;;1.87;;
15404;SDS011;7801;48.124;11.590;2023-01-30T07:25:42;2.92;;;2.72;;
15404;SDS011;7801;48.124;11.590;2023-01-30T07:28:07;2.13;;;2.03;;
15404;SDS011;7801;48.124;11.590;2023-01-30T07:30:33;28.37;;;3.13;;
15404;SDS011;7801;48.124;11.590;2023-01-30T07:33:00;3.43;;;3.23;;
15404;SDS011;7801;48.124;11.590;2023-01-30T07:35:28;4.20;;;3.90;;
15404;SDS011;7801;48.124;11.590;2023-01-30T07:37:54;2.80;;;2.60;;
15404;SDS011;7801;48.124;11.590;2023-01-30T07:40:20;2.73;;;2.60;;
15404;SDS011;7801;48.124;11.590;2023-01-30T07:45:20;2.70;;;2.60;;
15404;SDS011;7801;48.124;11.590;2023-01-30T07:47:46;2.40;;;2.30;;
15404;SDS011;7801;48.124;11.590;2023-01-30T07:50:11;4.17;;;3.87;;
15404;SDS011;7801;48.124;11.590;2023-01-30T07:52:37;6.03;;;3.03;;
15404;SDS011;7801;48.124;11.590;2023-01-30T07:55:03;4.40;;;4.00;;
15404;SDS011;7801;48.124;11.590;2023-01-30T07:57:28;3.47;;;3.27;;
15404;SDS011;7801;48.124;11.590;2023-01-30T07:59:54;3.80;;;3.60;;
15404;SDS011;7801;48.124;11.590;2023-01-30T08:02:19;3.07;;;2.80;;
15404;SDS011;7801;48.124;11.590;2023-01-30T08:04:44;2.80;;;2.63;;
15404;SDS011;7801;48.124;11.590;2023-01-30T08:07:10;2.60;;;2.50;;
15404;SDS011;7801;48.124;11.590;2023-01-30T08:09:35;2.30;;;2.20;;
15404;SDS011;7801;48.124;11.590;2023-01-30T08:12:00;2.87;;;2.67;;
15404;SDS011;7801;48.124;11.590;2023-01-30T08:14:26;2.93;;;2.80;;
15404;SDS011;7801;48.124;11.590;2023-01-30T08:16:54;2.30;;;2.20;;
15404;SDS011;7801;48.124;11.590;2023-01-30T08:19:20;3.07;;;2.53;;
15404;SDS011;7801;48.124;11.590;2023-01-30T08:21:46;0.63;;;0.50;;
15404;SDS011;7801;48.124;11.590;2023-01-30T08:24:11;16.70;;;3.97;;
15404;SDS011;7801;48.124;11.590;2023-01-30T08:26:36;1.90;;;1.80;;
15404;SDS011;7801;48.124;11.590;2023-01-30T08:29:01;2.40;;;2.20;;
15404;SDS011;7801;48.124;11.590;2023-01-30T08:31:27;3.90;;;3.67;;
15404;SDS011;7801;48.124;11.590;2023-01-30T08:33:52;2.80;;;2.70;;
15404;SDS011;7801;48.124;11.590;2023-01-30T08:36:18;2.97;;;2.87;;
15404;SDS011;7801;48.124;11.590;2023-01-30T08:38:43;2.30;;;2.20;;
15404;SDS011;7801;48.124;11.590;2023-01-30T08:41:08;6.43;;;3.10;;
15404;SDS011;7801;48.124;11.590;2023-01-30T08:43:34;4.00;;;2.77;;
15404;SDS011;7801;48.124;11.590;2023-01-30T08:46:00;2.67;;;2.47;;
15404;SDS011;7801;48.124;11.590;2023-01-30T08:48:26;5.33;;;2.77;;
15404;SDS011;7801;48.124;11.590;2023-01-30T08:50:51;3.90;;;3.40;;
15404;SDS011;7801;48.124;11.590;2023-01-30T08:53:17;2.73;;;2.63;;
15404;SDS011;7801;48.124;11.590;2023-01-30T08:55:45;2.33;;;2.03;;
15404;SDS011;7801;48.124;11.590;2023-01-30T08:58:10;3.00;;;2.90;;
15404;SDS011;7801;48.124;11.590;2023-01-30T09:00:36;2.90;;;2.80;;
15404;SDS011;7801;48.124;11.590;2023-01-30T09:03:03;2.23;;;2.13;;
15404;SDS011;7801;48.124;11.590;2023-01-30T09:05:28;1.83;;;1.77;;
15404;SDS011;7801;48.124;11.590;2023-01-30T09:07:54;2.50;;;2.40;;
15404;SDS011;7801;48.124;11.590;2023-01-30T09:10:19;2.97;;;2.77;;
15404;SDS011;7801;48.124;11.590;2023-01-30T09:12:46;7.00;;;1.83;;
15404;SDS011;7801;48.124;11.590;2023-01-30T09:15:12;24.17;;;1.70;;
15404;SDS011;7801;48.124;11.590;2023-01-30T09:17:37;1.77;;;1.67;;
15404;SDS011;7801;48.124;11.590;2023-01-30T09:20:06;3.00;;;2.87;;
15404;SDS011;7801;48.124;11.590;2023-01-30T09:22:32;2.60;;;2.40;;
15404;SDS011;7801;48.124;11.590;2023-01-30T09:24:58;3.23;;;2.93;;
15404;SDS011;7801;48.124;11.590;2023-01-30T09:27:23;3.13;;;2.83;;
15404;SDS011;7801;48.124;11.590;2023-01-30T09:29:48;3.33;;;3.07;;
15404;SDS011;7801;48.124;11.590;2023-01-30T09:32:14;2.43;;;2.33;;
15404;SDS011;7801;48.124;11.590;2023-01-30T09:34:39;3.17;;;2.87;;
15404;SDS011;7801;48.124;11.590;2023-01-30T09:37:04;2.60;;;2.43;;
15404;SDS011;7801;48.124;11.590;2023-01-30T09:39:30;2.63;;;1.77;;
15404;SDS011;7801;48.124;11.590;2023-01-30T09:47:13;1.93;;;1.87;;
15404;SDS011;7801;48.124;11.590;2023-01-30T09:55:10;2.97;;;1.87;;
15404;SDS011;7801;48.124;11.590;2023-01-30T09:57:42;3.83;;;3.40;;
15404;SDS011;7801;48.124;11.590;2023-01-30T10:02:49;3.17;;;2.30;;
15404;SDS011;7801;48.124;11.590;2023-01-30T10:14:07;2.67;;;2.57;;
15404;SDS011;7801;48.124;11.590;2023-01-30T10:17:26;2.30;;;2.13;;
15404;SDS011;7801;48.124;11.590;2023-01-30T10:28:37;2.63;;;1.63;;
15404;SDS011;7801;48.124;11.590;2023-01-30T10:30:53;2.23;;;1.87;;
15404;SDS011;7801;48.124;11.590;2023-01-30T10:33:31;1.83;;;1.83;;
15404;SDS011;7801;48.124;11.590;2023-01-30T10:36:04;1.37;;;1.33;;
15404;SDS011;7801;48.124;11.590;2023-01-30T10:38:48;2.60;;;1.03;;
15404;SDS011;7801;48.124;11.590;2023-01-30T10:49:17;1.80;;;1.70;;
15404;SDS011;7801;48.124;11.590;2023-01-30T10:54:56;1.33;;;1.27;;
15404;SDS011;7801;48.124;11.590;2023-01-30T11:00:19;1.10;;;1.10;;
15404;SDS011;7801;48.124;11.590;2023-01-30T11:08:17;0.93;;;0.93;;
15404;SDS011;7801;48.124;11.590;2023-01-30T11:10:47;1.47;;;1.47;;
15404;SDS011;7801;48.124;11.590;2023-01-30T11:13:20;1.63;;;1.33;;
15404;SDS011;7801;48.124;11.590;2023-01-30T11:15:51;1.77;;;1.67;;
15404;SDS011;7801;48.124;11.590;2023-01-30T11:18:20;0.57;;;0.57;;
15404;SDS011;7801;48.124;11.590;2023-01-30T11:20:56;1.37;;;1.37;;
15404;SDS011;7801;48.124;11.590;2023-01-30T11:23:32;1.97;;;1.73;;
15404;SDS011;7801;48.124;11.590;2023-01-30T11:26:04;1.17;;;1.13;;
15404;SDS011;7801;48.124;11.590;2023-01-30T11:28:38;0.80;;;0.80;;
15404;SDS011;7801;48.124;11.590;2023-01-30T11:31:14;1.27;;;1.17;;
15404;SDS011;7801;48.124;11.590;2023-01-30T11:33:45;2.50;;;1.57;;
15404;SDS011;7801;48.124;11.590;2023-01-30T11:36:23;1.50;;;0.97;;
15404;SDS011;7801;48.124;11.590;2023-01-30T11:39:36;0.33;;;0.33;;
15404;SDS011;7801;48.124;11.590;2023-01-30T11:41:40;1.43;;;1.27;;
15404;SDS011;7801;48.124;11.590;2023-01-30T11:44:07;0.97;;;0.97;;
15404;SDS011;7801;48.124;11.590;2023-01-30T11:46:35;0.60;;;0.60;;
15404;SDS011;7801;48.124;11.590;2023-01-30T11:49:04;0.73;;;0.73;;
15404;SDS011;7801;48.124;11.590;2023-01-30T11:51:36;5.77;;;1.03;;
15404;SDS011;7801;48.124;11.590;2023-01-30T11:54:04;0.40;;;0.40;;
15404;SDS011;7801;48.124;11.590;2023-01-30T11:56:35;1.47;;;1.37;;
15404;SDS011;7801;48.124;11.590;2023-01-30T11:59:20;1.17;;;1.13;;
15404;SDS011;7801;48.124;11.590;2023-01-30T12:01:47;1.37;;;1.37;;
15404;SDS011;7801;48.124;11.590;2023-01-30T12:04:13;0.87;;;0.87;;
15404;SDS011;7801;48.124;11.590;2023-01-30T12:06:39;1.00;;;0.93;;
15404;SDS011;7801;48.124;11.590;2023-01-30T12:09:30;1.03;;;1.03;;
15404;SDS011;7801;48.124;11.590;2023-01-30T12:12:02;1.03;;;1.03;;
15404;SDS011;7801;48.124;11.590;2023-01-30T12:14:47;0.57;;;0.57;;
15404;SDS011;7801;48.124;11.590;2023-01-30T12:20:01;2.30;;;1.67;;
15404;SDS011;7801;48.124;11.590;2023-01-30T12:22:54;0.93;;;0.93;;
15404;SDS011;7801;48.124;11.590;2023-01-30T12:25:37;0.63;;;0.63;;
15404;SDS011;7801;48.124;11.590;2023-01-30T12:28:10;0.83;;;0.83;;
15404;SDS011;7801;48.124;11.590;2023-01-30T12:30:57;0.83;;;0.83;;
15404;SDS011;7801;48.124;11.590;2023-01-30T12:33:31;0.57;;;0.57;;
15404;SDS011;7801;48.124;11.590;2023-01-30T12:44:14;0.97;;;0.97;;
15404;SDS011;7801;48.124;11.590;2023-01-30T12:52:27;3.80;;;1.17;;
15404;SDS011;7801;48.124;11.590;2023-01-30T12:55:13;1.30;;;1.23;;
15404;SDS011;7801;48.124;11.590;2023-01-30T12:57:49;1.33;;;0.83;;
15404;SDS011;7801;48.124;11.590;2023-01-30T13:00:27;0.73;;;0.73;;
15404;SDS011;7801;48.124;11.590;2023-01-30T13:11:53;0.67;;;0.67;;
15404;SDS011;7801;48.124;11.590;2023-01-30T13:16:35;1.10;;;1.10;;
15404;SDS011;7801;48.124;11.590;2023-01-30T13:19:14;0.73;;;0.73;;
15404;SDS011;7801;48.124;11.590;2023-01-30T13:22:48;1.47;;;1.37;;
15404;SDS011;7801;48.124;11.590;2023-01-30T13:27:44;0.47;;;0.47;;
15404;SDS011;7801;48.124;11.590;2023-01-30T13:30:16;2.83;;;2.63;;
15404;SDS011;7801;48.124;11.590;2023-01-30T13:32:44;1.27;;;1.27;;
15404;SDS011;7801;48.124;11.590;2023-01-30T13:35:15;0.50;;;0.50;;
15404;SDS011;7801;48.124;11.590;2023-01-30T13:37:44;0.63;;;0.63;;
15404;SDS011;7801;48.124;11.590;2023-01-30T13:40:14;0.97;;;0.97;;
15404;SDS011;7801;48.124;11.590;2023-01-30T13:45:19;0.40;;;0.40;;
15404;SDS011;7801;48.124;11.590;2023-01-30T13:53:16;0.80;;;0.80;;
15404;SDS011;7801;48.124;11.590;2023-01-30T13:58:47;2.33;;;1.40;;
15404;SDS011;7801;48.124;11.590;2023-01-30T14:02:06;0.50;;;0.50;;
15404;SDS011;7801;48.124;11.590;2023-01-30T14:07:08;0.43;;;0.43;;
15404;SDS011;7801;48.124;11.590;2023-01-30T14:09:43;0.40;;;0.40;;
15404;SDS011;7801;48.124;11.590;2023-01-30T14:12:16;0.23;;;0.23;;
15404;SDS011;7801;48.124;11.590;2023-01-30T14:17:28;1.57;;;0.90;;
15404;SDS011;7801;48.124;11.590;2023-01-30T14:22:33;0.33;;;0.33;;
15404;SDS011;7801;48.124;11.590;2023-01-30T14:27:47;1.10;;;1.07;;
15404;SDS011;7801;48.124;11.590;2023-01-30T14:30:36;0.63;;;0.63;;
15404;SDS011;7801;48.124;11.590;2023-01-30T14:38:16;0.90;;;0.90;;
15404;SDS011;7801;48.124;11.590;2023-01-30T14:40:44;0.37;;;0.37;;
15404;SDS011;7801;48.124;11.590;2023-01-30T14:45:47;0.50;;;0.50;;
15404;SDS011;7801;48.124;11.590;2023-01-30T14:51:41;0.67;;;0.67;;
15404;SDS011;7801;48.124;11.590;2023-01-30T14:59:29;0.70;;;0.70;;
15404;SDS011;7801;48.124;11.590;2023-01-30T15:07:16;0.57;;;0.57;;
15404;SDS011;7801;48.124;11.590;2023-01-30T15:10:07;0.53;;;0.53;;
15404;SDS011;7801;48.124;11.590;2023-01-30T15:15:31;0.60;;;0.60;;
15404;SDS011;7801;48.124;11.590;2023-01-30T15:27:04;0.60;;;0.60;;
15404;SDS011;7801;48.124;11.590;2023-01-30T15:29:52;0.87;;;0.87;;
15404;SDS011;7801;48.124;11.590;2023-01-30T15:32:26;1.30;;;1.13;;
15404;SDS011;7801;48.124;11.590;2023-01-30T15:37:35;1.10;;;1.10;;
15404;SDS011;7801;48.124;11.590;2023-01-30T15:42:43;1.07;;;1.07;;
15404;SDS011;7801;48.124;11.590;2023-01-30T15:48:11;1.73;;;1.23;;
15404;SDS011;7801;48.124;11.590;2023-01-30T15:50:52;1.10;;;1.00;;
15404;SDS011;7801;48.124;11.590;2023-01-30T15:53:28;1.17;;;1.17;;
15404;SDS011;7801;48.124;11.590;2023-01-30T15:55:56;1.73;;;1.63;;
15404;SDS011;7801;48.124;11.590;2023-01-30T15:58:24;1.17;;;1.07;;
15404;SDS011;7801;48.124;11.590;2023-01-30T16:00:51;1.10;;;0.83;;
15404;SDS011;7801;48.124;11.590;2023-01-30T16:03:23;1.03;;;1.03;;
15404;SDS011;7801;48.124;11.590;2023-01-30T16:05:53;1.30;;;1.20;;
15404;SDS011;7801;48.124;11.590;2023-01-30T16:08:21;1.20;;;1.20;;
15404;SDS011;7801;48.124;11.590;2023-01-30T16:11:04;0.93;;;0.87;;
15404;SDS011;7801;48.124;11.590;2023-01-30T16:13:29;0.97;;;0.97;;
15404;SDS011;7801;48.124;11.590;2023-01-30T16:21:21;1.17;;;1.03;;
15404;SDS011;7801;48.124;11.590;2023-01-30T16:24:33;0.67;;;0.67;;
15404;SDS011;7801;48.124;11.590;2023-01-30T16:26:46;1.00;;;0.83;;
15404;SDS011;7801;48.124;11.590;2023-01-30T16:29:16;1.07;;;1.07;;
15404;SDS011;7801;48.124;11.590;2023-01-30T16:31:48;1.63;;;1.43;;
15404;SDS011;7801;48.124;11.590;2023-01-30T16:34:21;1.20;;;1.20;;
15404;SDS011;7801;48.124;11.590;2023-01-30T16:36:52;0.80;;;0.80;;
15404;SDS011;7801;48.124;11.590;2023-01-30T16:39:23;0.90;;;0.90;;
15404;SDS011;7801;48.124;11.590;2023-01-30T16:41:54;1.00;;;1.00;;
15404;SDS011;7801;48.124;11.590;2023-01-30T16:44:24;2.17;;;2.07;;
15404;SDS011;7801;48.124;11.590;2023-01-30T16:46:54;0.60;;;0.60;;
15404;SDS011;7801;48.124;11.590;2023-01-30T16:52:01;1.53;;;1.43;;
15404;SDS011;7801;48.124;11.590;2023-01-30T16:54:46;1.13;;;1.10;;
15404;SDS011;7801;48.124;11.590;2023-01-30T16:57:21;2.10;;;2.00;;
15404;SDS011;7801;48.124;11.590;2023-01-30T16:59:48;1.17;;;1.17;;
15404;SDS011;7801;48.124;11.590;2023-01-30T17:02:23;0.47;;;0.47;;
15404;SDS011;7801;48.124;11.590;2023-01-30T17:04:52;1.13;;;1.00;;
15404;SDS011;7801;48.124;11.590;2023-01-30T17:07:51;1.03;;;1.03;;
15404;SDS011;7801;48.124;11.590;2023-01-30T17:12:54;1.17;;;1.17;;
15404;SDS011;7801;48.124;11.590;2023-01-30T17:17:45;1.30;;;1.30;;
15404;SDS011;7801;48.124;11.590;2023-01-30T17:20:11;5.60;;;1.40;;
15404;SDS011;7801;48.124;11.590;2023-01-30T17:22:43;1.53;;;1.53;;
15404;SDS011;7801;48.124;11.590;2023-01-30T17:25:30;2.10;;;2.00;;
15404;SDS011;7801;48.124;11.590;2023-01-30T17:28:02;0.97;;;0.97;;
15404;SDS011;7801;48.124;11.590;2023-01-30T17:30:31;1.80;;;1.70;;
15404;SDS011;7801;48.124;11.590;2023-01-30T17:32:57;1.03;;;1.03;;
15404;SDS011;7801;48.124;11.590;2023-01-30T17:35:22;0.70;;;0.70;;
15404;SDS011;7801;48.124;11.590;2023-01-30T17:37:47;2.10;;;1.90;;
15404;SDS011;7801;48.124;11.590;2023-01-30T17:40:18;1.27;;;1.27;;
15404;SDS011;7801;48.124;11.590;2023-01-30T17:42:52;1.23;;;1.23;;
15404;SDS011;7801;48.124;11.590;2023-01-30T17:45:17;0.97;;;0.97;;
15404;SDS011;7801;48.124;11.590;2023-01-30T17:47:43;0.63;;;0.63;;
15404;SDS011;7801;48.124;11.590;2023-01-30T17:50:11;2.53;;;2.33;;
15404;SDS011;7801;48.124;11.590;2023-01-30T17:52:39;0.70;;;0.70;;
15404;SDS011;7801;48.124;11.590;2023-01-30T17:55:05;1.60;;;1.60;;
15404;SDS011;7801;48.124;11.590;2023-01-30T17:57:33;1.20;;;1.20;;
15404;SDS011;7801;48.124;11.590;2023-01-30T17:59:59;2.10;;;2.00;;
15404;SDS011;7801;48.124;11.590;2023-01-30T18:02:24;1.67;;;1.57;;
15404;SDS011;7801;48.124;11.590;2023-01-30T18:04:52;1.17;;;1.13;;
15404;SDS011;7801;48.124;11.590;2023-01-30T18:07:17;1.23;;;1.23;;
15404;SDS011;7801;48.124;11.590;2023-01-30T18:09:43;1.10;;;1.10;;
15404;SDS011;7801;48.124;11.590;2023-01-30T18:12:08;1.40;;;1.30;;
15404;SDS011;7801;48.124;11.590;2023-01-30T18:14:34;1.90;;;1.80;;
15404;SDS011;7801;48.124;11.590;2023-01-30T18:16:59;1.43;;;1.13;;
15404;SDS011;7801;48.124;11.590;2023-01-30T18:19:25;1.43;;;1.43;;
15404;SDS011;7801;48.124;11.590;2023-01-30T18:21:52;0.83;;;0.83;;
15404;SDS011;7801;48.124;11.590;2023-01-30T18:24:17;1.00;;;1.00;;
15404;SDS011;7801;48.124;11.590;2023-01-30T18:26:43;0.70;;;0.70;;
15404;SDS011;7801;48.124;11.590;2023-01-30T18:29:09;1.40;;;1.30;;